Time;durP1;ratioP1;P1;durP2;ratioP2;P2;SDS_P1;SDS_P2;PMS_P1;PMS_P2;Temp;Humidity;BMP_temperature;BMP_pressure;BME280_temperature;BME280_humidity;BME280_pressure;Samples;Min_cycle;Max_cycle;Signal;HPM_P1;HPM_P2
2023/05/07 00:01:11;;;;;;;18.35;5.72;;;;;;;0.81;65.40;100322.41;7343709;19;20014;-67
2023/05/07 00:03:37;;;;;;;11.70;5.57;;;;;;;0.82;64.64;100323.28;7343376;19;20030;-65
2023/05/07 00:06:02;;;;;;;12.80;6.75;;;;;;;0.76;65.11;100323.41;7342713;19;20010;-67
2023/05/07 00:08:27;;;;;;;11.68;5.75;;;;;;;0.75;65.08;100325.19;7341555;19;20090;-66
2023/05/07 00:10:51;;;;;;;16.20;7.53;;;;;;;0.75;64.96;100327.81;7344328;19;20019;-65
2023/05/07 00:13:16;;;;;;;14.30;5.35;;;;;;;0.75;65.32;100327.81;7341094;19;20355;-67
2023/05/07 00:15:41;;;;;;;13.88;6.35;;;;;;;0.77;64.82;100323.41;7342598;19;20027;-64
2023/05/07 00:18:05;;;;;;;11.25;6.13;;;;;;;0.71;65.07;100328.75;7344024;19;20015;-64
2023/05/07 00:20:30;;;;;;;26.40;7.13;;;;;;;0.67;65.39;100325.34;7340688;19;20018;-67
2023/05/07 00:22:56;;;;;;;14.23;6.55;;;;;;;0.69;65.46;100326.16;7337664;19;20011;-66
2023/05/07 00:25:21;;;;;;;18.20;6.43;;;;;;;0.70;65.56;100327.88;7339739;19;20019;-64
2023/05/07 00:27:45;;;;;;;11.98;5.97;;;;;;;0.71;65.28;100326.13;7337826;19;20021;-69
2023/05/07 00:30:10;;;;;;;20.48;6.15;;;;;;;0.68;64.81;100328.81;7334813;19;20014;-73
2023/05/07 00:32:36;;;;;;;15.63;7.85;;;;;;;0.65;65.37;100329.75;7339672;19;20470;-69
2023/05/07 00:35:01;;;;;;;17.40;7.15;;;;;;;0.63;65.60;100328.91;7339632;19;20014;-69
2023/05/07 00:37:28;;;;;;;21.13;7.05;;;;;;;0.63;65.99;100328.91;7343206;19;20017;-71
2023/05/07 00:39:53;;;;;;;22.55;6.20;;;;;;;0.63;65.63;100338.53;7340100;19;20034;-71
2023/05/07 00:42:18;;;;;;;19.05;5.90;;;;;;;0.62;65.39;100336.81;7332682;19;20423;-72
2023/05/07 00:44:42;;;;;;;15.68;6.25;;;;;;;0.59;65.71;100342.97;7338877;19;20082;-70
2023/05/07 00:47:07;;;;;;;15.15;6.43;;;;;;;0.61;65.28;100340.34;7337472;19;20014;-69
2023/05/07 00:49:44;;;;;;;19.80;6.45;;;;;;;0.58;65.53;100341.25;7339049;19;20006;-70
2023/05/07 00:52:16;;;;;;;18.40;5.82;;;;;;;0.56;65.97;100344.81;7337609;19;20031;-66
2023/05/07 00:54:41;;;;;;;11.68;5.65;;;;;;;0.54;66.20;100342.22;7336937;19;20082;-71
2023/05/07 00:57:06;;;;;;;10.52;5.68;;;;;;;0.54;66.41;100339.59;7338960;19;20011;-71
2023/05/07 00:59:32;;;;;;;11.13;5.85;;;;;;;0.57;65.86;100350.00;7340490;19;20036;-75
2023/05/07 01:01:57;;;;;;;12.75;6.13;;;;;;;0.47;65.99;100343.22;7339795;19;20762;-70
2023/05/07 01:04:22;;;;;;;14.40;6.60;;;;;;;0.40;66.68;100340.75;7343842;19;20082;-73
2023/05/07 01:06:48;;;;;;;13.13;5.50;;;;;;;0.43;66.18;100340.72;7346937;19;20015;-71
2023/05/07 01:09:14;;;;;;;10.75;5.38;;;;;;;0.41;66.01;100337.25;7350158;19;20033;-74
2023/05/07 01:11:40;;;;;;;14.90;6.28;;;;;;;0.39;65.87;100339.03;7348786;19;20103;-72
2023/05/07 01:14:05;;;;;;;11.57;6.78;;;;;;;0.34;65.99;100344.34;7345928;19;20061;-69
2023/05/07 01:16:31;;;;;;;13.80;5.90;;;;;;;0.33;66.04;100342.66;7343798;19;20025;-71
2023/05/07 01:18:56;;;;;;;10.80;5.57;;;;;;;0.31;65.93;100347.91;7347158;19;20018;-72
2023/05/07 01:21:26;;;;;;;17.92;5.63;;;;;;;0.31;65.97;100350.53;7351508;19;20034;-74
2023/05/07 01:23:54;;;;;;;10.45;4.90;;;;;;;0.29;66.12;100343.59;7346562;19;20115;-69
2023/05/07 01:26:21;;;;;;;7.88;4.72;;;;;;;0.24;66.24;100348.91;7346273;19;20019;-69
2023/05/07 01:28:46;;;;;;;15.60;5.57;;;;;;;0.22;66.43;100353.34;7345359;19;20047;-79
2023/05/07 01:31:13;;;;;;;18.67;6.07;;;;;;;0.22;66.52;100357.72;7347118;19;20015;-74
2023/05/07 01:33:40;;;;;;;12.60;5.63;;;;;;;0.20;66.42;100352.50;7346536;19;20053;-73
2023/05/07 01:36:07;;;;;;;9.57;4.95;;;;;;;0.21;66.47;100361.22;7346566;19;20023;-79
2023/05/07 01:38:32;;;;;;;10.27;5.30;;;;;;;0.17;66.55;100363.03;7346177;19;20033;-67
2023/05/07 01:40:57;;;;;;;11.38;4.53;;;;;;;0.16;66.46;100358.66;7350492;19;20021;-67
2023/05/07 01:43:22;;;;;;;10.32;4.57;;;;;;;0.15;66.61;100371.81;7353248;19;20007;-65
2023/05/07 01:45:49;;;;;;;13.10;4.53;;;;;;;0.14;66.75;100364.81;7358440;19;20021;-71
2023/05/07 01:48:15;;;;;;;10.20;4.80;;;;;;;0.11;66.81;100364.91;7357999;19;20015;-74
2023/05/07 01:50:42;;;;;;;6.82;4.65;;;;;;;0.12;66.61;100370.09;7357433;19;20027;-75
2023/05/07 01:53:07;;;;;;;9.07;4.72;;;;;;;0.09;66.84;100372.78;7350908;19;20017;-70
2023/05/07 01:55:32;;;;;;;7.68;4.28;;;;;;;0.08;66.82;100371.06;7355739;19;20082;-69
2023/05/07 01:57:57;;;;;;;6.88;3.78;;;;;;;0.09;67.02;100372.78;7352742;19;20014;-67
2023/05/07 02:00:22;;;;;;;10.10;4.65;;;;;;;0.17;66.73;100381.38;7354866;19;20015;-75
2023/05/07 02:02:46;;;;;;;11.05;5.55;;;;;;;0.19;66.72;100376.09;7357067;19;20014;-76
2023/05/07 02:05:23;;;;;;;13.60;4.60;;;;;;;0.18;66.41;100383.09;7344630;19;20010;-70
2023/05/07 02:07:55;;;;;;;6.15;4.00;;;;;;;0.19;66.56;100387.47;7343420;19;20023;-68
2023/05/07 02:10:22;;;;;;;9.40;4.47;;;;;;;0.23;66.66;100391.75;7342759;19;20086;-66
2023/05/07 02:12:47;;;;;;;8.13;3.90;;;;;;;0.27;66.56;100393.44;7345232;19;20023;-75
2023/05/07 02:15:12;;;;;;;6.80;3.58;;;;;;;0.34;66.40;100400.28;7343353;19;20014;-71
2023/05/07 02:17:58;;;;;;;6.65;4.45;;;;;;;0.46;66.31;100398.31;7345303;19;20127;-78
2023/05/07 02:20:24;;;;;;;7.72;5.15;;;;;;;0.49;66.05;100396.53;7344554;19;20014;-73
2023/05/07 02:23:09;;;;;;;11.63;4.38;;;;;;;0.56;66.10;100399.91;7344410;19;20035;-72
2023/05/07 02:25:34;;;;;;;7.50;4.25;;;;;;;0.61;65.69;100406.78;7343535;19;20022;-74
2023/05/07 02:27:59;;;;;;;11.40;4.35;;;;;;;0.67;65.54;100400.56;7347648;19;20010;-75
2023/05/07 02:30:36;;;;;;;8.13;4.47;;;;;;;0.70;65.31;100401.38;7344232;19;20103;-68
2023/05/07 02:33:01;;;;;;;8.80;4.40;;;;;;;0.78;65.07;100403.84;7345337;19;20006;-66
2023/05/07 02:35:26;;;;;;;5.88;4.20;;;;;;;0.82;64.86;100404.63;7346571;19;20055;-68
2023/05/07 02:37:51;;;;;;;18.65;4.97;;;;;;;0.90;64.67;100408.00;7344321;19;20039;-68
2023/05/07 02:40:16;;;;;;;6.72;4.43;;;;;;;0.98;64.57;100419.22;7344490;19;20022;-76
2023/05/07 02:42:41;;;;;;;7.07;4.70;;;;;;;1.07;64.28;100414.63;7341626;19;20006;-65
2023/05/07 02:45:06;;;;;;;8.38;4.07;;;;;;;1.18;64.18;100421.41;7345750;19;20017;-68
2023/05/07 02:47:30;;;;;;;7.63;4.65;;;;;;;1.34;63.89;100412.31;7341824;19;20015;-73
2023/05/07 02:49:57;;;;;;;8.35;4.45;;;;;;;1.43;63.20;100414.75;7342047;19;20021;-69
2023/05/07 02:52:22;;;;;;;7.63;3.97;;;;;;;1.49;62.91;100422.47;7343005;19;20018;-67
2023/05/07 02:54:47;;;;;;;9.95;4.10;;;;;;;1.57;62.73;100415.31;7341310;19;20553;-66
2023/05/07 02:57:14;;;;;;;7.60;3.85;;;;;;;1.73;62.52;100419.31;7343323;19;20755;-68
2023/05/07 02:59:39;;;;;;;5.80;3.97;;;;;;;1.81;62.16;100414.72;7343877;19;20567;-66
2023/05/07 03:02:04;;;;;;;6.03;3.80;;;;;;;1.94;61.76;100414.44;7345030;19;20014;-64
2023/05/07 03:04:29;;;;;;;7.03;4.30;;;;;;;2.07;61.38;100426.38;7345024;19;20144;-65
2023/05/07 03:06:54;;;;;;;11.93;4.85;;;;;;;2.07;60.96;100429.00;7346512;19;20458;-63
2023/05/07 03:09:19;;;;;;;4.80;3.63;;;;;;;2.16;61.03;100424.38;7348728;19;20024;-65
2023/05/07 03:11:44;;;;;;;7.32;4.18;;;;;;;2.22;60.68;100426.03;7344270;19;20010;-62
2023/05/07 03:14:08;;;;;;;6.32;3.67;;;;;;;2.39;60.53;100423.81;7344513;19;20010;-63
2023/05/07 03:16:33;;;;;;;7.30;3.85;;;;;;;2.57;60.46;100426.88;7344948;19;20039;-66
2023/05/07 03:18:58;;;;;;;4.50;3.42;;;;;;;2.74;59.88;100429.91;7344271;19;20018;-65
2023/05/07 03:21:23;;;;;;;5.35;3.58;;;;;;;2.87;59.27;100433.94;7342314;19;20022;-66
2023/05/07 03:23:48;;;;;;;6.15;3.60;;;;;;;3.03;59.17;100432.63;7344362;19;20022;-65
2023/05/07 03:26:12;;;;;;;4.15;3.40;;;;;;;3.10;58.37;100439.44;7344192;19;20033;-66
2023/05/07 03:28:37;;;;;;;5.75;3.72;;;;;;;3.21;58.52;100447.03;7345571;19;20006;-67
2023/05/07 03:31:05;;;;;;;9.90;3.78;;;;;;;3.29;58.07;100450.31;7344032;19;20014;-72
2023/05/07 03:33:34;;;;;;;7.43;3.65;;;;;;;3.27;58.03;100445.06;7343363;19;20007;-71
2023/05/07 03:35:59;;;;;;;9.82;4.28;;;;;;;3.33;58.03;100454.59;7344383;19;20019;-71
2023/05/07 03:38:24;;;;;;;14.77;5.00;;;;;;;3.57;57.73;100450.38;7350634;19;20022;-71
2023/05/07 03:40:49;;;;;;;7.18;3.35;;;;;;;3.74;56.95;100448.06;7348663;19;20010;-71
2023/05/07 03:43:16;;;;;;;6.28;4.20;;;;;;;3.91;56.58;100439.66;7350260;19;20010;-71
2023/05/07 03:45:47;;;;;;;7.15;3.78;;;;;;;4.14;55.89;100441.56;7344106;19;20085;-72
2023/05/07 03:48:17;;;;;;;8.35;4.57;;;;;;;4.30;55.42;100440.13;7343923;19;20027;-69
2023/05/07 03:50:43;;;;;;;7.18;3.63;;;;;;;4.48;55.05;100444.81;7344578;19;20018;-71
2023/05/07 03:53:08;;;;;;;9.13;4.32;;;;;;;4.49;53.90;100438.59;7343222;19;20018;-69
2023/05/07 03:55:39;;;;;;;7.30;4.38;;;;;;;4.33;54.37;100446.16;7339976;19;20410;-70
2023/05/07 03:58:04;;;;;;;8.90;4.45;;;;;;;4.30;54.47;100445.41;7340931;19;20025;-69
2023/05/07 04:00:33;;;;;;;9.55;4.43;;;;;;;4.32;54.69;100462.06;7343768;19;20022;-71
2023/05/07 04:02:58;;;;;;;7.25;4.65;;;;;;;4.37;54.21;100455.72;7337839;19;20030;-69
2023/05/07 04:05:25;;;;;;;10.95;5.18;;;;;;;4.44;54.09;100460.78;7340143;19;20078;-70
2023/05/07 04:07:54;;;;;;;9.18;4.45;;;;;;;4.61;54.35;100456.69;7342075;19;20015;-70
2023/05/07 04:10:25;;;;;;;5.75;3.80;;;;;;;4.89;53.57;100460.97;7341938;19;20010;-68
2023/05/07 04:12:53;;;;;;;6.22;4.25;;;;;;;5.08;53.08;100459.41;7340167;19;20032;-71
2023/05/07 04:15:20;;;;;;;5.15;4.00;;;;;;;5.27;52.48;100464.91;7341298;19;20190;-71
2023/05/07 04:17:45;;;;;;;6.55;4.20;;;;;;;5.47;51.66;100465.88;7341087;19;20011;-71
2023/05/07 04:20:16;;;;;;;6.10;3.83;;;;;;;5.71;51.14;100460.59;7341632;19;20019;-71
2023/05/07 04:22:43;;;;;;;6.50;3.80;;;;;;;5.98;50.39;100467.47;7339611;19;20111;-71
2023/05/07 04:25:09;;;;;;;9.95;4.18;;;;;;;6.24;49.65;100471.72;7339939;19;20021;-71
2023/05/07 04:27:35;;;;;;;9.00;4.18;;;;;;;6.57;48.88;100470.34;7339719;19;20010;-71
2023/05/07 04:30:00;;;;;;;4.53;3.28;;;;;;;6.93;48.42;100467.91;7339352;19;20370;-70
2023/05/07 04:32:29;;;;;;;5.05;3.67;;;;;;;7.39;47.29;100471.19;7337618;19;20488;-70
2023/05/07 04:34:55;;;;;;;5.88;3.63;;;;;;;7.81;45.54;100464.81;7337952;19;20010;-71
2023/05/07 04:37:20;;;;;;;10.10;4.10;;;;;;;8.02;44.93;100455.81;7338736;19;20051;-71
2023/05/07 04:39:44;;;;;;;7.60;4.25;;;;;;;8.19;44.21;100458.53;7343394;19;20010;-70
2023/05/07 04:42:09;;;;;;;5.03;3.58;;;;;;;8.41;43.25;100466.34;7348101;19;20359;-71
2023/05/07 04:44:36;;;;;;;8.73;3.63;;;;;;;8.50;43.09;100457.06;7345441;19;20473;-71
2023/05/07 04:47:01;;;;;;;7.50;3.85;;;;;;;8.55;43.19;100473.66;7345673;19;20110;-73
2023/05/07 04:49:26;;;;;;;6.35;3.90;;;;;;;8.51;42.91;100475.59;7345428;19;20035;-71
2023/05/07 04:51:53;;;;;;;6.07;4.35;;;;;;;8.67;42.63;100465.91;7344460;19;20018;-72
2023/05/07 04:54:20;;;;;;;6.53;4.13;;;;;;;9.07;42.63;100470.03;7345428;19;20035;-71
2023/05/07 04:56:45;;;;;;;5.00;3.80;;;;;;;9.31;42.18;100457.25;7348988;19;20018;-72
2023/05/07 04:59:10;;;;;;;7.60;4.53;;;;;;;9.51;41.19;100466.81;7345510;19;20011;-72
2023/05/07 05:01:35;;;;;;;8.50;4.63;;;;;;;9.76;40.98;100464.53;7344635;19;20078;-71
2023/05/07 05:04:00;;;;;;;9.18;3.60;;;;;;;10.04;40.17;100455.03;7346706;19;20018;-70
2023/05/07 05:06:25;;;;;;;8.02;3.65;;;;;;;10.32;39.47;100462.34;7345137;19;20015;-73
2023/05/07 05:08:51;;;;;;;4.78;3.38;;;;;;;10.53;39.11;100475.28;7348159;19;20401;-72
2023/05/07 05:11:16;;;;;;;4.32;3.10;;;;;;;10.83;39.21;100467.31;7346017;19;20462;-73
2023/05/07 05:13:41;;;;;;;6.18;3.72;;;;;;;11.25;38.29;100466.53;7345186;19;20545;-72
2023/05/07 05:16:14;;;;;;;50.97;7.20;;;;;;;11.57;37.85;100469.00;7344404;19;20014;-73
2023/05/07 05:18:39;;;;;;;11.13;3.30;;;;;;;11.68;37.14;100465.66;7344723;19;20437;-71
2023/05/07 05:21:03;;;;;;;7.55;3.10;;;;;;;11.98;36.88;100466.41;7345549;19;20026;-70
2023/05/07 05:23:30;;;;;;;2.47;2.28;;;;;;;12.16;35.58;100459.91;7347506;19;20014;-69
2023/05/07 05:25:57;;;;;;;3.75;2.83;;;;;;;12.34;34.26;100463.16;7346397;19;20039;-70
2023/05/07 05:28:25;;;;;;;6.13;2.58;;;;;;;12.46;33.82;100465.03;7345191;19;20046;-70
2023/05/07 05:30:50;;;;;;;3.30;2.92;;;;;;;12.78;33.39;100462.03;7349024;19;20014;-70
2023/05/07 05:33:16;;;;;;;8.05;2.78;;;;;;;12.43;32.81;100477.75;7344943;19;20481;-70
2023/05/07 05:35:42;;;;;;;3.70;2.63;;;;;;;12.16;33.23;100472.41;7346936;19;20039;-70
2023/05/07 05:38:10;;;;;;;2.95;2.25;;;;;;;11.65;35.03;100474.72;7348196;19;20013;-71
2023/05/07 05:40:35;;;;;;;3.35;2.58;;;;;;;11.36;35.70;100489.03;7347386;19;20010;-70
2023/05/07 05:43:00;;;;;;;5.20;2.60;;;;;;;11.58;35.18;100478.75;7343841;19;20759;-70
2023/05/07 05:45:25;;;;;;;5.40;3.13;;;;;;;11.76;35.16;100485.63;7342668;19;20395;-70
2023/05/07 05:47:50;;;;;;;4.88;2.90;;;;;;;11.88;35.01;100482.19;7342495;19;20018;-71
2023/05/07 05:50:15;;;;;;;6.05;3.53;;;;;;;13.22;33.77;100478.59;7343905;19;20100;-71
2023/05/07 05:52:40;;;;;;;5.88;3.45;;;;;;;14.79;31.19;100473.41;7342618;19;20019;-70
2023/05/07 05:55:06;;;;;;;2.85;2.50;;;;;;;15.90;29.19;100470.13;7343119;19;20018;-70
2023/05/07 05:57:33;;;;;;;4.65;2.53;;;;;;;17.13;28.47;100471.59;7343381;19;20015;-69
2023/05/07 05:59:58;;;;;;;4.38;3.45;;;;;;;18.04;26.26;100464.41;7345333;19;20015;-69
2023/05/07 06:02:23;;;;;;;4.88;3.20;;;;;;;18.18;25.64;100465.84;7341890;19;20378;-70
2023/05/07 06:04:47;;;;;;;12.57;3.50;;;;;;;17.73;25.76;100474.34;7344138;19;20392;-69
2023/05/07 06:07:16;;;;;;;5.55;3.10;;;;;;;16.73;26.38;100474.94;7344210;19;20011;-70
2023/05/07 06:09:40;;;;;;;5.25;3.42;;;;;;;14.94;28.04;100481.28;7345655;19;20070;-74
2023/05/07 06:12:05;;;;;;;6.13;3.15;;;;;;;13.55;29.75;100485.25;7342677;19;20306;-74
2023/05/07 06:14:30;;;;;;;6.50;3.08;;;;;;;12.40;31.26;100486.84;7343256;19;20018;-72
2023/05/07 06:16:56;;;;;;;6.18;3.05;;;;;;;11.40;33.03;100485.22;7344157;19;20025;-71
2023/05/07 06:19:23;;;;;;;7.38;2.75;;;;;;;10.81;33.99;100498.53;7343865;19;20085;-72
2023/05/07 06:21:50;;;;;;;3.65;2.85;;;;;;;10.48;34.79;100503.16;7344697;19;20345;-71
2023/05/07 06:24:15;;;;;;;7.45;2.58;;;;;;;10.35;34.65;100500.34;7343260;19;20319;-70
2023/05/07 06:26:40;;;;;;;7.20;3.03;;;;;;;11.96;33.02;100490.56;7343849;19;20041;-70
2023/05/07 06:29:04;;;;;;;4.88;2.80;;;;;;;12.75;31.53;100495.22;7342366;19;20022;-73
2023/05/07 06:31:33;;;;;;;4.30;2.35;;;;;;;12.48;31.46;100487.19;7344464;19;20450;-73
2023/05/07 06:34:02;;;;;;;2.67;2.45;;;;;;;11.89;32.70;100488.38;7342300;19;20334;-72
2023/05/07 06:36:32;;;;;;;5.65;3.58;;;;;;;11.78;32.45;100489.06;7344540;19;20044;-72
2023/05/07 06:39:01;;;;;;;5.70;4.10;;;;;;;11.57;32.01;100487.69;7343385;19;20026;-72
2023/05/07 06:41:26;;;;;;;4.07;2.85;;;;;;;12.30;31.53;100489.25;7344303;19;20034;-70
2023/05/07 06:43:53;;;;;;;6.85;3.47;;;;;;;13.10;30.62;100487.44;7341811;19;20018;-70
2023/05/07 06:46:50;;;;;;;4.40;3.05;;;;;;;13.17;30.72;100482.59;7339154;19;20022;-70
2023/05/07 06:49:15;;;;;;;3.83;2.22;;;;;;;12.75;30.91;100489.88;7339946;19;20039;-71
2023/05/07 06:51:40;;;;;;;2.90;2.35;;;;;;;12.78;30.36;100488.78;7339348;19;20015;-72
2023/05/07 06:54:05;;;;;;;3.25;2.25;;;;;;;12.67;30.07;100494.84;7339325;19;20039;-71
2023/05/07 06:56:32;;;;;;;4.07;2.63;;;;;;;12.08;30.21;100488.06;7339507;19;20024;-72
2023/05/07 06:59:00;;;;;;;6.85;2.83;;;;;;;11.41;31.02;100494.94;7339859;19;20466;-72
2023/05/07 07:01:28;;;;;;;4.90;2.92;;;;;;;10.73;31.56;100487.44;7339517;19;20014;-72
2023/05/07 07:03:52;;;;;;;3.63;2.65;;;;;;;10.46;32.29;100486.41;7339618;19;20018;-71
2023/05/07 07:06:19;;;;;;;5.03;2.53;;;;;;;10.34;32.64;100487.97;7339055;19;20018;-72
2023/05/07 07:08:44;;;;;;;4.40;3.22;;;;;;;10.11;32.99;100491.03;7339979;19;20021;-73
2023/05/07 07:11:12;;;;;;;5.40;4.05;;;;;;;9.61;32.84;100488.47;7339718;19;20577;-72
2023/05/07 07:13:36;;;;;;;6.32;3.00;;;;;;;9.45;32.67;100485.78;7337677;19;20559;-73
2023/05/07 07:16:01;;;;;;;4.93;2.60;;;;;;;9.40;33.01;100487.81;7341497;19;20099;-72
2023/05/07 07:18:27;;;;;;;7.63;3.15;;;;;;;9.95;33.25;100491.00;7339398;19;20381;-72
2023/05/07 07:20:52;;;;;;;3.90;2.83;;;;;;;11.77;31.47;100486.47;7338687;19;20355;-71
2023/05/07 07:23:17;;;;;;;3.78;2.40;;;;;;;15.09;28.37;100481.00;7342766;19;20378;-73
2023/05/07 07:25:42;;;;;;;4.75;3.13;;;;;;;18.65;24.91;100468.81;7340430;19;20402;-72
2023/05/07 07:28:07;;;;;;;5.13;2.60;;;;;;;21.06;22.63;100463.28;7343648;19;20022;-69
2023/05/07 07:30:35;;;;;;;2.88;2.17;;;;;;;22.55;21.38;100465.66;7341570;19;20458;-68
2023/05/07 07:33:02;;;;;;;5.15;2.65;;;;;;;22.43;20.85;100465.97;7349244;19;20037;-69
2023/05/07 07:35:30;;;;;;;4.15;3.08;;;;;;;23.22;20.23;100467.28;7356358;19;20014;-69
2023/05/07 07:37:55;;;;;;;4.82;2.47;;;;;;;23.02;20.42;100463.22;7360030;19;20023;-70
2023/05/07 07:40:20;;;;;;;4.10;2.72;;;;;;;21.09;20.42;100462.97;7351916;19;20057;-76
2023/05/07 07:42:45;;;;;;;7.38;3.22;;;;;;;19.26;21.43;100457.69;7350807;19;20026;-74
2023/05/07 07:45:11;;;;;;;5.65;3.00;;;;;;;18.27;22.79;100458.78;7352150;19;20049;-74
2023/05/07 07:47:41;;;;;;;4.70;2.28;;;;;;;17.96;23.63;100460.69;7343578;19;20018;-70
2023/05/07 07:50:06;;;;;;;3.20;2.70;;;;;;;17.39;23.35;100473.72;7342211;19;20564;-73
2023/05/07 07:52:31;;;;;;;3.85;3.10;;;;;;;18.38;23.74;100455.97;7343057;19;20022;-71
2023/05/07 07:54:56;;;;;;;11.77;3.95;;;;;;;19.15;23.00;100462.25;7346125;19;20015;-69
2023/05/07 07:57:22;;;;;;;9.10;3.42;;;;;;;19.81;22.84;100454.13;7347066;19;20014;-69
2023/05/07 07:59:49;;;;;;;5.20;2.85;;;;;;;20.45;21.74;100458.63;7345616;19;20023;-70
2023/05/07 08:02:15;;;;;;;4.25;2.33;;;;;;;21.73;20.56;100459.03;7340289;19;20041;-71
2023/05/07 08:04:41;;;;;;;2.80;1.85;;;;;;;22.24;19.79;100460.81;7341196;19;20464;-70
2023/05/07 08:07:07;;;;;;;2.17;1.77;;;;;;;22.12;19.82;100451.28;7340228;19;20018;-69
2023/05/07 08:09:35;;;;;;;4.45;2.47;;;;;;;21.12;19.96;100453.66;7342193;19;20022;-71
2023/05/07 08:12:02;;;;;;;2.17;2.08;;;;;;;19.66;21.85;100458.31;7340464;19;20022;-69
2023/05/07 08:14:30;;;;;;;2.30;2.10;;;;;;;19.05;22.09;100460.56;7350377;19;20018;-71
2023/05/07 08:16:55;;;;;;;10.75;2.95;;;;;;;20.62;20.87;100452.41;7349287;19;20037;-70
2023/05/07 08:19:21;;;;;;;2.35;2.13;;;;;;;21.88;20.00;100449.28;7348772;19;20026;-69
2023/05/07 08:21:47;;;;;;;3.50;2.63;;;;;;;23.46;18.87;100455.50;7348038;19;20023;-70
2023/05/07 08:24:14;;;;;;;6.00;2.40;;;;;;;25.74;17.53;100454.97;7346288;19;20048;-70
2023/05/07 08:26:39;;;;;;;7.68;3.25;;;;;;;27.28;16.21;100442.72;7348928;19;20466;-70
2023/05/07 08:29:05;;;;;;;5.07;2.78;;;;;;;26.45;16.66;100439.75;7348144;19;20333;-69
2023/05/07 08:31:30;;;;;;;5.80;2.63;;;;;;;24.40;17.41;100454.69;7349181;19;20027;-69
2023/05/07 08:33:55;;;;;;;33.30;23.17;;;;;;;21.84;18.72;100458.75;7347421;19;20015;-72
2023/05/07 08:36:20;;;;;;;4.40;3.75;;;;;;;20.03;19.46;100458.28;7351670;19;20026;-71
2023/05/07 08:38:45;;;;;;;3.13;2.47;;;;;;;21.25;19.66;100444.16;7348282;19;20030;-69
2023/05/07 08:41:11;;;;;;;3.08;2.88;;;;;;;23.88;18.53;100447.09;7346932;19;20178;-69
2023/05/07 08:43:38;;;;;;;3.58;3.25;;;;;;;26.54;16.13;100438.59;7347363;19;20049;-69
2023/05/07 08:46:05;;;;;;;4.28;3.10;;;;;;;27.57;14.91;100430.75;7348867;19;20334;-70
2023/05/07 08:48:36;;;;;;;3.88;2.38;;;;;;;26.27;15.84;100431.97;7346982;19;20014;-72
2023/05/07 08:51:13;;;;;;;3.30;2.55;;;;;;;24.25;17.12;100438.28;7346863;19;20035;-70
2023/05/07 08:53:43;;;;;;;3.05;2.70;;;;;;;22.10;17.79;100437.00;7346361;19;20026;-68
2023/05/07 08:56:17;;;;;;;6.07;2.65;;;;;;;20.28;19.61;100445.91;7347288;19;20018;-73
2023/05/07 08:58:46;;;;;;;9.77;2.90;;;;;;;18.51;20.72;100451.13;7348185;19;20014;-68
2023/05/07 09:01:15;;;;;;;4.55;2.47;;;;;;;17.07;21.91;100456.78;7346356;19;20335;-69
2023/05/07 09:03:46;;;;;;;2.38;2.20;;;;;;;17.67;21.65;100453.34;7344369;19;20006;-73
2023/05/07 09:06:16;;;;;;;3.13;2.30;;;;;;;19.83;19.84;100452.13;7345193;19;20021;-73
2023/05/07 09:08:54;;;;;;;5.38;2.20;;;;;;;22.01;19.13;100444.25;7348772;19;20085;-73
2023/05/07 09:11:23;;;;;;;5.43;2.38;;;;;;;21.03;18.45;100441.91;7344799;19;20319;-73
2023/05/07 09:14:01;;;;;;;4.93;2.10;;;;;;;20.06;19.49;100443.63;7343730;19;20018;-71
2023/05/07 09:16:30;;;;;;;4.97;2.60;;;;;;;18.41;21.19;100451.13;7344368;19;20014;-72
2023/05/07 09:19:02;;;;;;;3.38;2.70;;;;;;;18.05;21.43;100454.47;7344786;19;20019;-71
2023/05/07 09:21:27;;;;;;;4.00;2.67;;;;;;;20.02;20.59;100439.50;7348862;19;20371;-72
2023/05/07 09:23:56;;;;;;;9.27;2.97;;;;;;;22.99;18.91;100447.22;7343999;19;20053;-71
2023/05/07 09:26:31;;;;;;;2.53;2.20;;;;;;;25.58;16.44;100432.28;7344008;19;20014;-71
2023/05/07 09:28:58;;;;;;;6.72;2.60;;;;;;;27.59;15.18;100428.66;7343559;19;20019;-71
2023/05/07 09:31:25;;;;;;;2.75;2.53;;;;;;;29.18;13.95;100419.94;7343116;19;20030;-71
2023/05/07 09:33:53;;;;;;;10.07;3.67;;;;;;;30.66;13.46;100424.63;7343352;19;20014;-71
2023/05/07 09:36:18;;;;;;;3.15;2.85;;;;;;;30.99;13.14;100420.78;7344098;19;20014;-72
2023/05/07 09:38:45;;;;;;;3.63;3.33;;;;;;;29.25;13.55;100422.66;7346709;19;20021;-71
2023/05/07 09:41:12;;;;;;;5.60;2.63;;;;;;;26.61;14.67;100421.25;7343680;19;20037;-71
2023/05/07 09:43:53;;;;;;;3.25;2.70;;;;;;;25.29;16.11;100446.72;7344390;19;20022;-71
2023/05/07 09:46:24;;;;;;;3.92;2.47;;;;;;;24.27;16.51;100425.28;7344521;19;20034;-72
2023/05/07 09:48:53;;;;;;;5.15;2.42;;;;;;;24.54;16.29;100421.22;7344727;19;20041;-73
2023/05/07 09:51:26;;;;;;;2.88;2.67;;;;;;;24.57;16.97;100434.50;7343060;19;20025;-71
2023/05/07 09:53:53;;;;;;;2.42;2.30;;;;;;;23.19;17.04;100434.97;7343152;19;20046;-71
2023/05/07 09:56:21;;;;;;;4.28;3.08;;;;;;;22.03;17.44;100433.22;7343034;19;20014;-70
2023/05/07 09:58:49;;;;;;;4.07;2.75;;;;;;;21.56;17.67;100430.94;7343790;19;20461;-72
2023/05/07 10:01:17;;;;;;;2.95;2.75;;;;;;;20.72;18.40;100433.34;7342016;19;20019;-71
2023/05/07 10:03:45;;;;;;;3.53;2.75;;;;;;;19.84;19.18;100444.88;7343632;19;20018;-71
2023/05/07 10:06:11;;;;;;;4.10;3.08;;;;;;;18.78;20.20;100436.97;7342572;19;20600;-71
2023/05/07 10:08:37;;;;;;;3.85;2.25;;;;;;;17.78;20.58;100447.00;7342951;19;20041;-71
2023/05/07 10:11:05;;;;;;;4.32;2.50;;;;;;;17.91;20.52;100433.28;7343018;19;20042;-72
2023/05/07 10:13:35;;;;;;;4.80;2.50;;;;;;;19.80;19.15;100435.34;7342641;19;20034;-72
2023/05/07 10:16:03;;;;;;;3.72;2.38;;;;;;;22.63;17.40;100420.31;7343379;19;20018;-73
2023/05/07 10:18:38;;;;;;;3.17;2.08;;;;;;;25.72;15.96;100410.66;7343816;19;20011;-75
2023/05/07 10:21:18;;;;;;;3.33;2.85;;;;;;;27.03;15.37;100417.66;7343824;19;20006;-74
2023/05/07 10:23:47;;;;;;;4.22;2.60;;;;;;;25.55;15.85;100421.72;7347934;19;20033;-74
2023/05/07 10:26:15;;;;;;;4.28;2.78;;;;;;;23.72;16.62;100417.19;7346647;19;20035;-73
2023/05/07 10:28:44;;;;;;;2.40;2.20;;;;;;;21.78;17.76;100432.28;7344196;19;20011;-72
2023/05/07 10:31:10;;;;;;;4.35;2.38;;;;;;;19.93;19.04;100419.59;7343685;19;20034;-72
2023/05/07 10:33:45;;;;;;;1.83;1.73;;;;;;;18.66;19.38;100427.31;7344323;19;20338;-74
2023/05/07 10:36:10;;;;;;;4.07;2.22;;;;;;;17.45;20.00;100417.59;7345539;19;20015;-74
2023/05/07 10:38:36;;;;;;;4.22;2.70;;;;;;;16.73;20.76;100434.56;7347271;19;20117;-76
2023/05/07 10:41:01;;;;;;;2.05;1.90;;;;;;;15.96;20.78;100425.72;7347006;19;20023;-73
2023/05/07 10:43:41;;;;;;;5.40;1.85;;;;;;;15.34;21.76;100439.66;7344351;19;20014;-71
2023/05/07 10:46:21;;;;;;;2.50;2.22;;;;;;;14.59;22.52;100439.19;7344181;19;20014;-72
2023/05/07 10:49:06;;;;;;;2.40;1.92;;;;;;;14.24;23.11;100447.16;7345676;19;20029;-72
2023/05/07 10:52:14;;;;;;;2.13;1.95;;;;;;;13.79;23.43;100451.34;7346185;19;20569;-73
2023/05/07 10:54:45;;;;;;;5.90;2.38;;;;;;;12.90;24.53;100447.81;7348137;19;20033;-72
2023/05/07 10:57:31;;;;;;;2.72;2.35;;;;;;;12.85;24.30;100448.13;7344585;19;20018;-70
2023/05/07 10:59:58;;;;;;;4.70;1.85;;;;;;;12.46;25.07;100453.47;7343249;19;20035;-71
2023/05/07 11:03:00;;;;;;;3.33;2.38;;;;;;;12.57;26.04;100445.59;7345678;19;20018;-72
2023/05/07 11:05:30;;;;;;;2.25;2.05;;;;;;;12.23;25.07;100445.16;7346413;19;20022;-72
2023/05/07 11:08:57;;;;;;;2.67;2.30;;;;;;;12.35;24.98;100443.50;7340697;19;20018;-74
2023/05/07 11:11:55;;;;;;;5.63;1.95;;;;;;;12.23;25.14;100455.84;7338025;19;20027;-72
2023/05/07 11:14:41;;;;;;;5.50;1.88;;;;;;;12.14;25.08;100451.13;7340154;19;20014;-73
2023/05/07 11:17:09;;;;;;;3.00;2.10;;;;;;;12.26;24.82;100450.31;7343200;19;20482;-79
2023/05/07 11:19:55;;;;;;;3.45;2.13;;;;;;;12.64;24.51;100458.44;7345462;19;20019;-78
2023/05/07 11:22:39;;;;;;;3.95;2.78;;;;;;;12.78;24.94;100444.16;7343985;19;20493;-78
2023/05/07 11:25:19;;;;;;;10.00;2.47;;;;;;;12.96;24.35;100447.41;7345303;19;20029;-77
2023/05/07 11:27:48;;;;;;;4.57;2.60;;;;;;;12.95;24.86;100443.88;7342446;19;20021;-70
2023/05/07 11:30:19;;;;;;;2.47;2.28;;;;;;;12.96;24.43;100442.06;7337936;19;20014;-69